Aeroporto :
LOGIN :

Iscrizione | Disclaimer

   EN    FR    IT 

 










Sommario :    VFR   VFR Marginale   IFR   IFR Intensivo   IFR Molto Intensivo
Visibilità : 
Base nubi : 
>= 8 km
>= 3000ft
5 / 8 km
1000 / 3000 ft
1500m / 5 km
500 / 1000 ft
800 / 1500m
200 / 500 ft
< 800m
< 200 ft
Simboli :   Temporali  Nebbia  Neve Forte  Precipitazioni Forti  Vento > 20 kt
SIGMETs :   Varie  Temporali  Ghiacco  Turbolenza  Onda orograficha  Ceneri Vulcaniche






- Altitudine del aeroporto : 826 ft
- Codice IATA : CWC


UKLN - Chernivtsi International

ULTIMO METAR :
  • 151743Z 11005MPS 1400 1300SE R15/P2000N -DZ BR OVC004 09/08 Q1018 R15/19//65 TEMPO 0300 FG VV002

METARs OBSOLETI :
  • 151730Z 11005MPS 2200 BR OVC004 09/08 Q1018 TEMPO 0300 FG VV002
  • 151700Z 11005MPS 2800 BR OVC006 09/08 Q1018 TEMPO 1500 BR OVC005
  • 151630Z 11004MPS 4500 BR OVC008 09/07 Q1018 TEMPO 1500 BR OVC005
  • 151620Z 11004MPS 4900 BR OVC008 09/07 Q1018 NOSIG
  • 151600Z 11004MPS 6000 OVC008 09/07 Q1018 NOSIG

TAF TAF UKLN
Valido dal 15 a 18 ore il 16 a 03 ore UTC


151704Z 1518/1603 11005MPS 1500 BR OVC005
TEMPO 1518/1603 0300 FG VV002



MetMap, La meteo Aeronautica in un colpo d'occhio ! - Copyright ORBIFLY Dicembre 2007 - Disclaimer

ORBIFLY MET'MAP TEAM :

Programmazione e sviluppo : Alexandra Zaïnal
Concezione e sviluppo : Baudouin d'Aumeries
Co-Programmazione e sviluppo : Marc-Olivier Méhu
Supporto tecnico e logistico : Manuel Goepfert
Aiuto per la traduzione : Arnaldo La Scala

Contatto : metmap@orbifly.com




FONTI E CREDITI :

   NOAA